sensor_id;sensor_type;location;lat;lon;timestamp;P1;durP1;ratioP1;P2;durP2;ratioP2
58752;SDS011;44525;46.052;13.610;2022-10-20T00:01:28;25.83;;;15.77;;
58752;SDS011;44525;46.052;13.610;2022-10-20T00:03:54;22.98;;;15.48;;
58752;SDS011;44525;46.052;13.610;2022-10-20T00:06:21;32.10;;;16.77;;
58752;SDS011;44525;46.052;13.610;2022-10-20T00:08:52;22.55;;;15.43;;
58752;SDS011;44525;46.052;13.610;2022-10-20T00:11:19;25.58;;;16.65;;
58752;SDS011;44525;46.052;13.610;2022-10-20T00:13:46;23.75;;;16.15;;
58752;SDS011;44525;46.052;13.610;2022-10-20T00:16:13;36.63;;;17.85;;
58752;SDS011;44525;46.052;13.610;2022-10-20T00:18:39;29.38;;;17.95;;
58752;SDS011;44525;46.052;13.610;2022-10-20T11:49:33;10.10;;;6.18;;
58752;SDS011;44525;46.052;13.610;2022-10-20T11:58:10;12.82;;;6.10;;
58752;SDS011;44525;46.052;13.610;2022-10-20T12:06:56;9.20;;;6.05;;
58752;SDS011;44525;46.052;13.610;2022-10-20T12:12:14;10.38;;;5.95;;
58752;SDS011;44525;46.052;13.610;2022-10-20T12:14:51;11.05;;;6.03;;
58752;SDS011;44525;46.052;13.610;2022-10-20T12:17:32;12.05;;;6.40;;
58752;SDS011;44525;46.052;13.610;2022-10-20T12:22:47;10.32;;;6.03;;
58752;SDS011;44525;46.052;13.610;2022-10-20T12:30:59;9.85;;;6.18;;
58752;SDS011;44525;46.052;13.610;2022-10-20T12:33:36;9.57;;;5.90;;
58752;SDS011;44525;46.052;13.610;2022-10-20T12:36:33;10.70;;;5.80;;
58752;SDS011;44525;46.052;13.610;2022-10-20T12:41:45;10.47;;;5.70;;
58752;SDS011;44525;46.052;13.610;2022-10-20T12:44:20;10.88;;;6.28;;
58752;SDS011;44525;46.052;13.610;2022-10-20T12:46:54;10.02;;;6.07;;
58752;SDS011;44525;46.052;13.610;2022-10-20T12:49:28;11.18;;;6.32;;
58752;SDS011;44525;46.052;13.610;2022-10-20T12:51:57;10.10;;;6.45;;
58752;SDS011;44525;46.052;13.610;2022-10-20T12:54:25;8.18;;;5.82;;
58752;SDS011;44525;46.052;13.610;2022-10-20T12:57:24;10.60;;;6.00;;
58752;SDS011;44525;46.052;13.610;2022-10-20T13:02:54;10.65;;;6.40;;
58752;SDS011;44525;46.052;13.610;2022-10-20T13:05:26;14.57;;;6.32;;
58752;SDS011;44525;46.052;13.610;2022-10-20T13:10:35;14.57;;;6.38;;
58752;SDS011;44525;46.052;13.610;2022-10-20T13:15:31;11.88;;;5.88;;
58752;SDS011;44525;46.052;13.610;2022-10-20T13:17:59;12.90;;;6.20;;
58752;SDS011;44525;46.052;13.610;2022-10-20T13:23:17;13.57;;;6.15;;
58752;SDS011;44525;46.052;13.610;2022-10-20T13:29:11;10.95;;;6.32;;
58752;SDS011;44525;46.052;13.610;2022-10-20T13:51:28;8.32;;;5.72;;
58752;SDS011;44525;46.052;13.610;2022-10-20T13:53:58;13.07;;;5.75;;
58752;SDS011;44525;46.052;13.610;2022-10-20T13:56:32;9.68;;;6.65;;
58752;SDS011;44525;46.052;13.610;2022-10-20T13:59:01;11.32;;;6.03;;
58752;SDS011;44525;46.052;13.610;2022-10-20T14:01:29;11.38;;;6.05;;
58752;SDS011;44525;46.052;13.610;2022-10-20T14:03:56;11.35;;;6.43;;
58752;SDS011;44525;46.052;13.610;2022-10-20T14:08:56;11.35;;;6.10;;
58752;SDS011;44525;46.052;13.610;2022-10-20T14:11:29;10.52;;;6.70;;
58752;SDS011;44525;46.052;13.610;2022-10-20T14:13:56;9.68;;;6.63;;
58752;SDS011;44525;46.052;13.610;2022-10-20T14:16:25;12.82;;;6.57;;
58752;SDS011;44525;46.052;13.610;2022-10-20T14:19:02;12.32;;;6.47;;
58752;SDS011;44525;46.052;13.610;2022-10-20T14:21:43;9.20;;;6.50;;
58752;SDS011;44525;46.052;13.610;2022-10-20T14:24:15;85.85;;;11.30;;
58752;SDS011;44525;46.052;13.610;2022-10-20T14:26:48;9.02;;;6.25;;
58752;SDS011;44525;46.052;13.610;2022-10-20T14:29:15;12.30;;;6.05;;
58752;SDS011;44525;46.052;13.610;2022-10-20T14:31:43;9.00;;;5.80;;
58752;SDS011;44525;46.052;13.610;2022-10-20T14:34:20;13.80;;;6.57;;
58752;SDS011;44525;46.052;13.610;2022-10-20T14:36:48;9.10;;;6.00;;
58752;SDS011;44525;46.052;13.610;2022-10-20T14:39:20;13.05;;;6.57;;
58752;SDS011;44525;46.052;13.610;2022-10-20T14:41:56;9.65;;;5.90;;
58752;SDS011;44525;46.052;13.610;2022-10-20T14:44:23;12.88;;;6.55;;
58752;SDS011;44525;46.052;13.610;2022-10-20T14:46:49;11.55;;;6.03;;
58752;SDS011;44525;46.052;13.610;2022-10-20T14:49:27;11.23;;;8.00;;
58752;SDS011;44525;46.052;13.610;2022-10-20T14:52:03;15.80;;;9.65;;
58752;SDS011;44525;46.052;13.610;2022-10-20T14:54:43;12.40;;;8.88;;
58752;SDS011;44525;46.052;13.610;2022-10-20T14:59:49;12.93;;;6.18;;
58752;SDS011;44525;46.052;13.610;2022-10-20T15:02:24;11.15;;;6.82;;
58752;SDS011;44525;46.052;13.610;2022-10-20T15:04:52;20.00;;;9.90;;
58752;SDS011;44525;46.052;13.610;2022-10-20T15:07:21;20.92;;;11.10;;
58752;SDS011;44525;46.052;13.610;2022-10-20T15:10:07;23.92;;;12.65;;
58752;SDS011;44525;46.052;13.610;2022-10-20T15:17:41;46.40;;;23.98;;
58752;SDS011;44525;46.052;13.610;2022-10-20T15:23:00;24.83;;;12.57;;
58752;SDS011;44525;46.052;13.610;2022-10-20T15:25:36;23.85;;;15.77;;
58752;SDS011;44525;46.052;13.610;2022-10-20T15:28:20;23.40;;;13.90;;
58752;SDS011;44525;46.052;13.610;2022-10-20T15:30:53;17.15;;;9.68;;
58752;SDS011;44525;46.052;13.610;2022-10-20T15:33:19;16.00;;;7.22;;
58752;SDS011;44525;46.052;13.610;2022-10-20T15:35:45;16.70;;;7.15;;
58752;SDS011;44525;46.052;13.610;2022-10-20T15:38:12;15.38;;;7.57;;
58752;SDS011;44525;46.052;13.610;2022-10-20T15:40:39;16.63;;;7.30;;
58752;SDS011;44525;46.052;13.610;2022-10-20T15:43:11;13.10;;;7.57;;
58752;SDS011;44525;46.052;13.610;2022-10-20T15:48:09;14.05;;;6.68;;
58752;SDS011;44525;46.052;13.610;2022-10-20T15:50:35;16.70;;;8.95;;
58752;SDS011;44525;46.052;13.610;2022-10-20T15:53:01;12.85;;;7.30;;
58752;SDS011;44525;46.052;13.610;2022-10-20T15:55:31;15.77;;;6.90;;
58752;SDS011;44525;46.052;13.610;2022-10-20T15:57:58;14.20;;;7.18;;
58752;SDS011;44525;46.052;13.610;2022-10-20T16:00:25;16.55;;;8.18;;
58752;SDS011;44525;46.052;13.610;2022-10-20T16:02:52;15.40;;;9.15;;
58752;SDS011;44525;46.052;13.610;2022-10-20T16:05:18;16.13;;;9.00;;
58752;SDS011;44525;46.052;13.610;2022-10-20T16:07:47;15.32;;;9.30;;
58752;SDS011;44525;46.052;13.610;2022-10-20T16:10:14;16.10;;;9.02;;
58752;SDS011;44525;46.052;13.610;2022-10-20T16:12:40;12.50;;;8.50;;
58752;SDS011;44525;46.052;13.610;2022-10-20T16:15:06;15.98;;;10.50;;
58752;SDS011;44525;46.052;13.610;2022-10-20T16:17:33;13.13;;;9.70;;
58752;SDS011;44525;46.052;13.610;2022-10-20T16:19:59;13.30;;;9.07;;
58752;SDS011;44525;46.052;13.610;2022-10-20T16:22:24;14.25;;;9.00;;
58752;SDS011;44525;46.052;13.610;2022-10-20T16:24:50;16.23;;;9.10;;
58752;SDS011;44525;46.052;13.610;2022-10-20T16:27:16;14.45;;;8.57;;
58752;SDS011;44525;46.052;13.610;2022-10-20T16:29:41;18.40;;;11.95;;
58752;SDS011;44525;46.052;13.610;2022-10-20T16:32:07;20.85;;;12.50;;
58752;SDS011;44525;46.052;13.610;2022-10-20T16:34:32;15.07;;;10.07;;
58752;SDS011;44525;46.052;13.610;2022-10-20T16:36:58;19.40;;;9.32;;
58752;SDS011;44525;46.052;13.610;2022-10-20T16:39:23;17.98;;;9.23;;
58752;SDS011;44525;46.052;13.610;2022-10-20T16:41:48;25.23;;;12.23;;
58752;SDS011;44525;46.052;13.610;2022-10-20T16:44:14;18.70;;;9.20;;
58752;SDS011;44525;46.052;13.610;2022-10-20T16:46:39;16.00;;;11.50;;
58752;SDS011;44525;46.052;13.610;2022-10-20T16:49:05;21.65;;;13.23;;
58752;SDS011;44525;46.052;13.610;2022-10-20T16:51:31;19.55;;;10.15;;
58752;SDS011;44525;46.052;13.610;2022-10-20T16:53:57;14.70;;;8.93;;
58752;SDS011;44525;46.052;13.610;2022-10-20T16:56:23;12.38;;;7.63;;
58752;SDS011;44525;46.052;13.610;2022-10-20T16:58:49;11.52;;;7.40;;
58752;SDS011;44525;46.052;13.610;2022-10-20T17:01:15;13.13;;;7.90;;
58752;SDS011;44525;46.052;13.610;2022-10-20T17:03:43;12.85;;;8.30;;
58752;SDS011;44525;46.052;13.610;2022-10-20T17:06:11;13.35;;;8.80;;
58752;SDS011;44525;46.052;13.610;2022-10-20T17:08:37;16.50;;;8.60;;
58752;SDS011;44525;46.052;13.610;2022-10-20T17:11:05;17.02;;;8.48;;
58752;SDS011;44525;46.052;13.610;2022-10-20T17:13:32;15.32;;;8.10;;
58752;SDS011;44525;46.052;13.610;2022-10-20T17:16:08;12.90;;;8.85;;
58752;SDS011;44525;46.052;13.610;2022-10-20T17:18:36;19.00;;;8.55;;
58752;SDS011;44525;46.052;13.610;2022-10-20T17:21:02;14.82;;;8.63;;
58752;SDS011;44525;46.052;13.610;2022-10-20T17:23:32;13.23;;;8.45;;
58752;SDS011;44525;46.052;13.610;2022-10-20T17:26:00;18.05;;;8.85;;
58752;SDS011;44525;46.052;13.610;2022-10-20T17:28:29;13.05;;;8.05;;
58752;SDS011;44525;46.052;13.610;2022-10-20T17:30:56;11.85;;;7.88;;
58752;SDS011;44525;46.052;13.610;2022-10-20T17:33:26;20.42;;;9.20;;
58752;SDS011;44525;46.052;13.610;2022-10-20T17:35:53;15.75;;;8.90;;
58752;SDS011;44525;46.052;13.610;2022-10-20T17:38:20;14.75;;;8.93;;
58752;SDS011;44525;46.052;13.610;2022-10-20T17:40:46;15.20;;;9.43;;
58752;SDS011;44525;46.052;13.610;2022-10-20T17:43:12;18.30;;;9.95;;
58752;SDS011;44525;46.052;13.610;2022-10-20T17:45:38;22.00;;;9.85;;
58752;SDS011;44525;46.052;13.610;2022-10-20T17:48:05;22.30;;;9.10;;
58752;SDS011;44525;46.052;13.610;2022-10-20T17:50:31;20.52;;;10.00;;
58752;SDS011;44525;46.052;13.610;2022-10-20T17:53:00;16.95;;;10.00;;
58752;SDS011;44525;46.052;13.610;2022-10-20T17:55:26;17.15;;;9.50;;
58752;SDS011;44525;46.052;13.610;2022-10-20T17:57:52;13.15;;;9.18;;
58752;SDS011;44525;46.052;13.610;2022-10-20T18:00:17;14.60;;;9.63;;
58752;SDS011;44525;46.052;13.610;2022-10-20T18:02:46;13.90;;;9.48;;
58752;SDS011;44525;46.052;13.610;2022-10-20T18:05:13;14.68;;;9.70;;
58752;SDS011;44525;46.052;13.610;2022-10-20T18:07:38;14.68;;;9.30;;
58752;SDS011;44525;46.052;13.610;2022-10-20T18:10:04;16.70;;;8.85;;
58752;SDS011;44525;46.052;13.610;2022-10-20T18:12:30;26.60;;;9.23;;
58752;SDS011;44525;46.052;13.610;2022-10-20T18:14:55;18.88;;;10.15;;
58752;SDS011;44525;46.052;13.610;2022-10-20T18:17:21;16.33;;;10.57;;
58752;SDS011;44525;46.052;13.610;2022-10-20T18:19:46;15.18;;;9.38;;
58752;SDS011;44525;46.052;13.610;2022-10-20T18:22:12;16.15;;;9.93;;
58752;SDS011;44525;46.052;13.610;2022-10-20T18:24:37;18.42;;;9.77;;
58752;SDS011;44525;46.052;13.610;2022-10-20T18:27:03;16.33;;;8.98;;
58752;SDS011;44525;46.052;13.610;2022-10-20T18:29:30;13.73;;;8.90;;
58752;SDS011;44525;46.052;13.610;2022-10-20T18:31:56;16.83;;;9.05;;
58752;SDS011;44525;46.052;13.610;2022-10-20T18:34:21;17.50;;;9.98;;
58752;SDS011;44525;46.052;13.610;2022-10-20T18:36:47;15.65;;;9.63;;
58752;SDS011;44525;46.052;13.610;2022-10-20T18:39:14;19.83;;;9.85;;
58752;SDS011;44525;46.052;13.610;2022-10-20T18:41:40;16.42;;;10.50;;
58752;SDS011;44525;46.052;13.610;2022-10-20T18:44:14;21.10;;;9.52;;
58752;SDS011;44525;46.052;13.610;2022-10-20T18:46:44;14.93;;;9.63;;
58752;SDS011;44525;46.052;13.610;2022-10-20T18:49:11;15.48;;;9.38;;
58752;SDS011;44525;46.052;13.610;2022-10-20T18:51:39;12.63;;;8.40;;
58752;SDS011;44525;46.052;13.610;2022-10-20T18:54:05;14.60;;;8.82;;
58752;SDS011;44525;46.052;13.610;2022-10-20T18:56:32;14.52;;;9.32;;
58752;SDS011;44525;46.052;13.610;2022-10-20T18:59:03;15.98;;;8.57;;
58752;SDS011;44525;46.052;13.610;2022-10-20T19:01:31;22.70;;;9.55;;
58752;SDS011;44525;46.052;13.610;2022-10-20T19:03:59;17.00;;;8.85;;
58752;SDS011;44525;46.052;13.610;2022-10-20T19:06:32;17.15;;;10.00;;
58752;SDS011;44525;46.052;13.610;2022-10-20T19:09:06;16.52;;;8.63;;
58752;SDS011;44525;46.052;13.610;2022-10-20T19:11:38;16.25;;;8.52;;
58752;SDS011;44525;46.052;13.610;2022-10-20T19:14:05;14.82;;;8.32;;
58752;SDS011;44525;46.052;13.610;2022-10-20T19:16:32;15.00;;;8.77;;
58752;SDS011;44525;46.052;13.610;2022-10-20T19:18:59;16.50;;;9.73;;
58752;SDS011;44525;46.052;13.610;2022-10-20T19:21:26;16.05;;;9.05;;
58752;SDS011;44525;46.052;13.610;2022-10-20T19:24:00;21.05;;;9.93;;
58752;SDS011;44525;46.052;13.610;2022-10-20T19:26:31;17.75;;;9.05;;
58752;SDS011;44525;46.052;13.610;2022-10-20T19:29:04;17.38;;;9.77;;
58752;SDS011;44525;46.052;13.610;2022-10-20T19:31:37;17.10;;;9.90;;
58752;SDS011;44525;46.052;13.610;2022-10-20T19:36:37;17.45;;;9.88;;
58752;SDS011;44525;46.052;13.610;2022-10-20T19:39:04;15.68;;;9.55;;
58752;SDS011;44525;46.052;13.610;2022-10-20T19:41:31;13.70;;;8.35;;
58752;SDS011;44525;46.052;13.610;2022-10-20T19:43:56;13.35;;;8.70;;
58752;SDS011;44525;46.052;13.610;2022-10-20T19:46:22;13.27;;;8.65;;
58752;SDS011;44525;46.052;13.610;2022-10-20T19:48:47;15.45;;;8.90;;
58752;SDS011;44525;46.052;13.610;2022-10-20T19:51:14;15.55;;;9.10;;
58752;SDS011;44525;46.052;13.610;2022-10-20T19:53:41;16.40;;;9.27;;
58752;SDS011;44525;46.052;13.610;2022-10-20T19:56:07;22.00;;;10.48;;
58752;SDS011;44525;46.052;13.610;2022-10-20T19:58:33;18.60;;;10.27;;
58752;SDS011;44525;46.052;13.610;2022-10-20T20:01:00;31.65;;;11.70;;
58752;SDS011;44525;46.052;13.610;2022-10-20T20:03:27;19.40;;;10.40;;
58752;SDS011;44525;46.052;13.610;2022-10-20T20:05:57;24.40;;;10.63;;
58752;SDS011;44525;46.052;13.610;2022-10-20T20:08:23;19.58;;;9.57;;
58752;SDS011;44525;46.052;13.610;2022-10-20T20:10:50;16.45;;;10.00;;
58752;SDS011;44525;46.052;13.610;2022-10-20T20:13:16;13.93;;;9.10;;
58752;SDS011;44525;46.052;13.610;2022-10-20T20:15:42;15.88;;;9.13;;
58752;SDS011;44525;46.052;13.610;2022-10-20T20:18:07;14.10;;;9.20;;
58752;SDS011;44525;46.052;13.610;2022-10-20T20:20:37;15.00;;;8.68;;
58752;SDS011;44525;46.052;13.610;2022-10-20T20:23:04;17.90;;;9.07;;
58752;SDS011;44525;46.052;13.610;2022-10-20T20:25:29;15.27;;;8.77;;
58752;SDS011;44525;46.052;13.610;2022-10-20T20:27:54;16.85;;;9.52;;
58752;SDS011;44525;46.052;13.610;2022-10-20T20:30:20;17.92;;;8.35;;
58752;SDS011;44525;46.052;13.610;2022-10-20T20:32:45;15.43;;;9.25;;
58752;SDS011;44525;46.052;13.610;2022-10-20T20:35:11;15.68;;;9.52;;
58752;SDS011;44525;46.052;13.610;2022-10-20T20:37:38;17.98;;;9.00;;
58752;SDS011;44525;46.052;13.610;2022-10-20T20:40:03;15.85;;;8.50;;
58752;SDS011;44525;46.052;13.610;2022-10-20T20:42:29;14.57;;;8.65;;
58752;SDS011;44525;46.052;13.610;2022-10-20T20:44:55;16.67;;;9.50;;
58752;SDS011;44525;46.052;13.610;2022-10-20T20:47:20;16.48;;;8.98;;
58752;SDS011;44525;46.052;13.610;2022-10-20T20:49:46;19.20;;;9.38;;
58752;SDS011;44525;46.052;13.610;2022-10-20T20:52:11;16.13;;;9.15;;
58752;SDS011;44525;46.052;13.610;2022-10-20T20:54:37;13.00;;;8.05;;
58752;SDS011;44525;46.052;13.610;2022-10-20T20:57:02;17.05;;;8.60;;
58752;SDS011;44525;46.052;13.610;2022-10-20T20:59:27;15.18;;;8.90;;
58752;SDS011;44525;46.052;13.610;2022-10-20T21:01:53;15.00;;;8.40;;
58752;SDS011;44525;46.052;13.610;2022-10-20T21:04:18;14.00;;;9.63;;
58752;SDS011;44525;46.052;13.610;2022-10-20T21:06:45;16.88;;;8.27;;
58752;SDS011;44525;46.052;13.610;2022-10-20T21:09:10;13.20;;;9.07;;
58752;SDS011;44525;46.052;13.610;2022-10-20T21:11:36;18.55;;;9.13;;
58752;SDS011;44525;46.052;13.610;2022-10-20T21:14:02;14.93;;;9.30;;
58752;SDS011;44525;46.052;13.610;2022-10-20T21:16:29;16.92;;;10.05;;
58752;SDS011;44525;46.052;13.610;2022-10-20T21:19:00;22.23;;;9.40;;
58752;SDS011;44525;46.052;13.610;2022-10-20T21:21:29;17.50;;;9.18;;
58752;SDS011;44525;46.052;13.610;2022-10-20T21:23:57;19.13;;;9.00;;
58752;SDS011;44525;46.052;13.610;2022-10-20T21:26:24;13.65;;;9.40;;
58752;SDS011;44525;46.052;13.610;2022-10-20T21:28:50;14.88;;;8.82;;
58752;SDS011;44525;46.052;13.610;2022-10-20T21:31:18;16.60;;;9.40;;
58752;SDS011;44525;46.052;13.610;2022-10-20T21:33:48;15.15;;;8.32;;
58752;SDS011;44525;46.052;13.610;2022-10-20T21:36:16;17.65;;;8.45;;
58752;SDS011;44525;46.052;13.610;2022-10-20T21:38:42;17.30;;;8.77;;
58752;SDS011;44525;46.052;13.610;2022-10-20T21:41:12;13.45;;;8.10;;
58752;SDS011;44525;46.052;13.610;2022-10-20T21:43:43;13.82;;;8.55;;
58752;SDS011;44525;46.052;13.610;2022-10-20T21:46:21;16.10;;;9.07;;
58752;SDS011;44525;46.052;13.610;2022-10-20T21:48:49;19.02;;;9.02;;
58752;SDS011;44525;46.052;13.610;2022-10-20T21:51:34;16.92;;;9.73;;
58752;SDS011;44525;46.052;13.610;2022-10-20T21:54:03;15.00;;;8.98;;
58752;SDS011;44525;46.052;13.610;2022-10-20T21:56:32;13.43;;;8.60;;
58752;SDS011;44525;46.052;13.610;2022-10-20T21:59:00;15.18;;;8.60;;
58752;SDS011;44525;46.052;13.610;2022-10-20T22:01:26;19.65;;;9.20;;
58752;SDS011;44525;46.052;13.610;2022-10-20T22:03:52;15.52;;;8.93;;
58752;SDS011;44525;46.052;13.610;2022-10-20T22:06:19;17.30;;;8.45;;
58752;SDS011;44525;46.052;13.610;2022-10-20T22:08:47;20.30;;;10.23;;
58752;SDS011;44525;46.052;13.610;2022-10-20T22:11:14;13.75;;;9.00;;
58752;SDS011;44525;46.052;13.610;2022-10-20T22:13:42;15.18;;;9.07;;
58752;SDS011;44525;46.052;13.610;2022-10-20T22:16:09;14.45;;;8.40;;
58752;SDS011;44525;46.052;13.610;2022-10-20T22:18:38;18.85;;;8.93;;
58752;SDS011;44525;46.052;13.610;2022-10-20T22:21:04;15.65;;;9.18;;
58752;SDS011;44525;46.052;13.610;2022-10-20T22:23:31;14.55;;;8.30;;
58752;SDS011;44525;46.052;13.610;2022-10-20T22:25:57;14.73;;;8.60;;
58752;SDS011;44525;46.052;13.610;2022-10-20T22:28:23;15.85;;;8.80;;
58752;SDS011;44525;46.052;13.610;2022-10-20T22:30:51;12.38;;;8.50;;
58752;SDS011;44525;46.052;13.610;2022-10-20T22:33:17;13.18;;;8.60;;
58752;SDS011;44525;46.052;13.610;2022-10-20T22:35:42;12.77;;;8.52;;
58752;SDS011;44525;46.052;13.610;2022-10-20T22:38:08;17.83;;;8.18;;
58752;SDS011;44525;46.052;13.610;2022-10-20T22:40:34;15.98;;;8.40;;
58752;SDS011;44525;46.052;13.610;2022-10-20T22:42:59;15.48;;;8.63;;
58752;SDS011;44525;46.052;13.610;2022-10-20T22:45:25;14.07;;;8.45;;
58752;SDS011;44525;46.052;13.610;2022-10-20T22:47:51;17.05;;;8.10;;
58752;SDS011;44525;46.052;13.610;2022-10-20T22:50:16;15.80;;;8.43;;
58752;SDS011;44525;46.052;13.610;2022-10-20T22:52:42;16.67;;;8.35;;
58752;SDS011;44525;46.052;13.610;2022-10-20T22:55:07;13.90;;;8.13;;
58752;SDS011;44525;46.052;13.610;2022-10-20T22:57:33;14.65;;;7.97;;
58752;SDS011;44525;46.052;13.610;2022-10-20T22:59:59;13.00;;;8.32;;
58752;SDS011;44525;46.052;13.610;2022-10-20T23:02:24;14.20;;;8.13;;
58752;SDS011;44525;46.052;13.610;2022-10-20T23:04:50;16.75;;;8.05;;
58752;SDS011;44525;46.052;13.610;2022-10-20T23:07:16;15.32;;;8.88;;
58752;SDS011;44525;46.052;13.610;2022-10-20T23:09:41;17.30;;;9.13;;
58752;SDS011;44525;46.052;13.610;2022-10-20T23:12:07;12.73;;;8.60;;
58752;SDS011;44525;46.052;13.610;2022-10-20T23:14:32;13.13;;;7.82;;
58752;SDS011;44525;46.052;13.610;2022-10-20T23:16:57;12.85;;;8.40;;
58752;SDS011;44525;46.052;13.610;2022-10-20T23:19:23;16.30;;;7.85;;
58752;SDS011;44525;46.052;13.610;2022-10-20T23:21:49;17.83;;;8.30;;
58752;SDS011;44525;46.052;13.610;2022-10-20T23:24:15;16.67;;;7.93;;
58752;SDS011;44525;46.052;13.610;2022-10-20T23:26:40;14.27;;;8.23;;
58752;SDS011;44525;46.052;13.610;2022-10-20T23:29:07;13.43;;;8.13;;
58752;SDS011;44525;46.052;13.610;2022-10-20T23:31:34;16.50;;;8.57;;
58752;SDS011;44525;46.052;13.610;2022-10-20T23:33:59;11.95;;;8.05;;
58752;SDS011;44525;46.052;13.610;2022-10-20T23:36:25;14.48;;;8.60;;
58752;SDS011;44525;46.052;13.610;2022-10-20T23:38:50;16.92;;;8.02;;
58752;SDS011;44525;46.052;13.610;2022-10-20T23:41:16;15.23;;;7.90;;
58752;SDS011;44525;46.052;13.610;2022-10-20T23:43:41;20.48;;;8.25;;
58752;SDS011;44525;46.052;13.610;2022-10-20T23:46:07;14.65;;;7.70;;
58752;SDS011;44525;46.052;13.610;2022-10-20T23:48:33;12.50;;;8.40;;
58752;SDS011;44525;46.052;13.610;2022-10-20T23:50:59;14.15;;;8.63;;
58752;SDS011;44525;46.052;13.610;2022-10-20T23:53:24;12.23;;;8.25;;
58752;SDS011;44525;46.052;13.610;2022-10-20T23:55:50;15.73;;;8.27;;
58752;SDS011;44525;46.052;13.610;2022-10-20T23:58:15;13.05;;;7.78;;
